Pattersonville, Ohio
Current Conditions -  °F | °C
As of 7:51 PM on Friday 19 Dec 2014 (Local Time) from KCAK Reporting Station
Overcast Overcast  
Wind Chill: 23°   Ceiling: 2100
Heat Index: 30°   Visibility: 10mi
Dew Point: 22°   Wind: 7mph
Humidity: 72%   Direction: 290°WNW
Pressure: 30.28"   Gusts: NA
Location:  40.7427°N, 81.0929°W
Report Text: KCAK 200051Z 29006KT 10SM OVC021 M01/M06 A3028 RMK AO2 SLP269 T10111056
Loading
Personal Weather Stations






























Interactive Weather Map New forecast layout! Learn more

10-Day Weather Forecast

Advertisements
Track Severe Weather on mobile